Time;durP1;ratioP1;P1;durP2;ratioP2;P2;SDS_P1;SDS_P2;PMS_P1;PMS_P2;Temp;Humidity;BMP_temperature;BMP_pressure;BME280_temperature;BME280_humidity;BME280_pressure;Samples;Min_cycle;Max_cycle;Signal;HPM_P1;HPM_P2
2023/05/03 00:00:15;;;;;;;4.80;3.20;;;8.90;99.90;;;;;;4995705;28;20180;-66
2023/05/03 00:02:43;;;;;;;5.97;3.20;;;8.90;99.90;;;;;;4995084;28;20191;-66
2023/05/03 00:05:14;;;;;;;6.33;3.63;;;8.80;99.90;;;;;;4991936;28;20184;-66
2023/05/03 00:07:42;;;;;;;5.57;3.10;;;8.80;99.90;;;;;;4993185;28;20175;-66
2023/05/03 00:10:09;;;;;;;4.83;3.07;;;8.80;99.90;;;;;;5000755;28;20218;-66
2023/05/03 00:12:44;;;;;;;3.70;3.10;;;8.70;99.90;;;;;;4995354;28;20210;-63
2023/05/03 00:15:10;;;;;;;4.37;3.40;;;8.70;99.90;;;;;;4993948;28;20179;-66
2023/05/03 00:17:38;;;;;;;4.03;3.03;;;8.70;99.90;;;;;;4991570;28;20271;-66
2023/05/03 00:20:10;;;;;;;3.33;2.87;;;8.70;99.90;;;;;;4988790;28;20289;-64
2023/05/03 00:22:38;;;;;;;5.57;3.30;;;8.60;99.90;;;;;;4995404;28;20187;-64
2023/05/03 00:25:05;;;;;;;6.47;3.63;;;8.60;99.90;;;;;;4994819;28;20183;-65
2023/05/03 00:27:30;;;;;;;5.87;3.97;;;8.60;99.90;;;;;;4990331;28;20231;-65
2023/05/03 00:35:07;;;;;;;5.20;3.87;;;8.40;99.90;;;;;;5282632;23;20231;-65
2023/05/03 00:37:32;;;;;;;4.97;3.60;;;8.40;99.90;;;;;;4980106;28;20231;-64
2023/05/03 00:40:00;;;;;;;6.47;4.20;;;8.40;99.90;;;;;;4972058;28;20212;-65
2023/05/03 00:42:26;;;;;;;8.70;3.97;;;8.40;99.90;;;;;;4974727;28;20191;-64
2023/05/03 00:44:54;;;;;;;6.60;3.50;;;8.40;99.90;;;;;;4975119;28;20180;-63
2023/05/03 00:47:21;;;;;;;5.70;4.30;;;8.30;99.90;;;;;;4975841;28;20231;-64
2023/05/03 00:49:46;;;;;;;6.27;4.03;;;8.30;99.90;;;;;;4977984;28;20230;-62
2023/05/03 00:52:15;;;;;;;6.20;3.70;;;8.30;99.90;;;;;;4975080;28;20208;-63
2023/05/03 00:54:41;;;;;;;4.70;3.53;;;8.20;99.90;;;;;;4974659;28;20188;-65
2023/05/03 00:57:06;;;;;;;5.23;3.73;;;8.20;99.90;;;;;;4974714;28;20184;-65
2023/05/03 01:16:35;;;;;;;5.53;3.30;;;8.00;99.90;;;;;;5171038;23;20230;-65
2023/05/03 01:19:18;;;;;;;6.27;3.50;;;7.90;99.90;;;;;;4970001;28;20209;-66
2023/05/03 01:21:56;;;;;;;5.87;3.43;;;7.90;99.90;;;;;;4966101;28;20181;-65
2023/05/03 01:24:27;;;;;;;5.50;3.70;;;7.80;99.90;;;;;;4964152;28;20255;-60
2023/05/03 01:26:52;;;;;;;5.43;3.87;;;7.80;99.90;;;;;;4958361;28;20176;-65
2023/05/03 01:29:18;;;;;;;5.37;3.80;;;7.70;99.90;;;;;;4961297;28;20239;-65
2023/05/03 01:32:02;;;;;;;4.87;3.63;;;7.80;99.90;;;;;;4967966;28;20216;-65
2023/05/03 01:34:37;;;;;;;4.00;3.23;;;7.70;99.90;;;;;;4955917;28;20267;-65
2023/05/03 01:37:04;;;;;;;4.03;3.30;;;7.70;99.90;;;;;;4953224;29;20270;-66
2023/05/03 01:39:54;;;;;;;6.50;3.80;;;7.60;99.90;;;;;;4950051;28;20193;-65
2023/05/03 01:42:22;;;;;;;6.60;3.70;;;7.60;99.90;;;;;;4969625;28;20173;-64
2023/05/03 01:44:55;;;;;;;7.17;4.03;;;7.60;99.90;;;;;;4952268;29;20180;-65
2023/05/03 01:47:21;;;;;;;5.17;3.07;;;7.60;99.90;;;;;;4973352;28;20244;-65
2023/05/03 01:49:50;;;;;;;4.60;3.40;;;7.50;99.90;;;;;;4969823;28;20189;-65
2023/05/03 01:52:16;;;;;;;5.13;3.80;;;7.50;99.90;;;;;;4957693;29;20239;-65
2023/05/03 01:54:42;;;;;;;5.13;3.60;;;7.50;99.90;;;;;;4958693;29;20168;-66
2023/05/03 01:57:07;;;;;;;5.97;3.70;;;7.50;99.90;;;;;;4974900;28;20180;-63
2023/05/03 01:59:33;;;;;;;4.13;3.03;;;7.50;99.90;;;;;;4958794;29;20200;-65
2023/05/03 02:01:59;;;;;;;5.17;3.33;;;7.50;99.90;;;;;;4970288;28;20197;-65
2023/05/03 02:04:24;;;;;;;4.03;3.33;;;7.40;99.90;;;;;;4974477;28;20216;-66
2023/05/03 02:06:52;;;;;;;5.17;3.80;;;7.40;99.90;;;;;;4957652;28;20204;-66
2023/05/03 02:09:21;;;;;;;4.97;3.50;;;7.40;99.90;;;;;;4959186;29;20261;-65
2023/05/03 02:11:47;;;;;;;4.70;3.33;;;7.40;99.90;;;;;;4971630;28;20204;-66
2023/05/03 02:14:12;;;;;;;6.07;3.47;;;7.40;99.90;;;;;;4940958;29;20184;-66
2023/05/03 02:16:43;;;;;;;4.97;3.47;;;7.40;99.90;;;;;;4956323;28;20220;-66
2023/05/03 02:19:09;;;;;;;5.87;3.47;;;7.30;99.90;;;;;;4974691;28;20196;-65
2023/05/03 02:21:38;;;;;;;4.97;3.63;;;7.20;99.90;;;;;;4960669;28;20192;-68
2023/05/03 02:24:04;;;;;;;5.43;3.40;;;7.20;99.90;;;;;;4957911;29;20185;-66
2023/05/03 02:26:30;;;;;;;6.23;3.83;;;7.10;99.90;;;;;;4956803;28;20473;-66
2023/05/03 02:28:58;;;;;;;4.97;3.50;;;7.10;99.90;;;;;;4968566;28;20177;-65
2023/05/03 02:31:26;;;;;;;5.10;3.70;;;7.10;99.90;;;;;;4956803;28;20291;-61
2023/05/03 02:33:54;;;;;;;5.53;3.60;;;7.00;99.90;;;;;;4945302;29;20294;-62
2023/05/03 02:36:25;;;;;;;3.93;3.33;;;7.00;99.90;;;;;;4952682;28;20218;-66
2023/05/03 02:38:53;;;;;;;4.83;3.70;;;6.90;99.90;;;;;;4955668;28;20176;-65
2023/05/03 02:41:18;;;;;;;8.40;4.20;;;6.90;99.90;;;;;;4958133;28;20208;-61
2023/05/03 02:43:44;;;;;;;5.73;4.20;;;6.90;99.90;;;;;;4958329;28;20192;-66
2023/05/03 02:46:10;;;;;;;5.67;3.40;;;6.80;99.90;;;;;;4958202;28;20188;-66
2023/05/03 02:48:35;;;;;;;5.53;3.60;;;6.70;99.90;;;;;;4965203;28;20181;-66
2023/05/03 02:51:02;;;;;;;4.20;3.53;;;6.70;99.90;;;;;;4949405;28;20205;-66
2023/05/03 02:53:28;;;;;;;5.10;3.40;;;6.70;99.90;;;;;;4958624;28;20187;-58
2023/05/03 02:55:54;;;;;;;7.27;3.57;;;6.60;99.90;;;;;;4972085;28;20173;-64
2023/05/03 02:58:22;;;;;;;5.13;3.87;;;6.60;99.90;;;;;;4971069;28;20173;-65
2023/05/03 03:00:47;;;;;;;5.03;3.30;;;6.70;99.90;;;;;;4974441;28;20205;-64
2023/05/03 03:03:13;;;;;;;5.77;3.90;;;6.70;99.90;;;;;;4972738;28;20183;-66
2023/05/03 03:05:39;;;;;;;6.63;3.70;;;6.60;99.90;;;;;;4954083;29;20180;-65
2023/05/03 03:08:11;;;;;;;5.20;3.40;;;6.70;99.90;;;;;;4958795;28;20200;-66
2023/05/03 03:10:37;;;;;;;5.60;3.57;;;6.70;99.90;;;;;;4965980;28;20181;-65
2023/05/03 03:13:03;;;;;;;4.83;3.63;;;6.70;99.90;;;;;;4971673;28;20216;-66
2023/05/03 03:15:29;;;;;;;5.13;3.80;;;6.60;99.90;;;;;;4968470;28;20260;-63
2023/05/03 03:17:57;;;;;;;6.17;4.20;;;6.60;99.90;;;;;;4967429;28;20328;-66
2023/05/03 03:20:22;;;;;;;5.37;4.30;;;6.60;99.90;;;;;;4970788;28;20253;-66
2023/05/03 03:22:48;;;;;;;5.03;4.27;;;6.50;99.90;;;;;;4955332;29;20208;-64
2023/05/03 03:25:14;;;;;;;5.80;3.93;;;6.40;99.90;;;;;;4972962;28;20188;-65
2023/05/03 03:27:42;;;;;;;5.27;3.90;;;6.50;99.90;;;;;;4969149;28;20268;-65
2023/05/03 03:30:10;;;;;;;7.47;4.40;;;6.40;99.90;;;;;;4941165;29;20186;-65
2023/05/03 03:32:36;;;;;;;6.43;3.97;;;6.30;99.90;;;;;;4968921;28;20205;-66
2023/05/03 03:35:09;;;;;;;5.33;4.13;;;6.30;99.90;;;;;;4972771;28;20169;-61
2023/05/03 03:37:37;;;;;;;9.07;4.80;;;6.20;99.90;;;;;;4959647;28;20185;-66
2023/05/03 03:40:07;;;;;;;5.70;4.53;;;6.20;99.90;;;;;;4952392;29;20201;-66
2023/05/03 03:42:32;;;;;;;5.57;4.20;;;6.20;99.90;;;;;;4956446;28;20216;-62
2023/05/03 03:45:00;;;;;;;9.10;7.00;;;6.10;99.90;;;;;;4972599;28;20176;-63
2023/05/03 03:47:26;;;;;;;6.77;5.40;;;6.10;99.90;;;;;;4954904;28;20199;-66
2023/05/03 03:49:54;;;;;;;13.87;7.57;;;6.10;99.90;;;;;;4970837;28;20204;-66
2023/05/03 03:52:20;;;;;;;8.33;5.80;;;6.10;99.90;;;;;;4953462;29;20439;-65
2023/05/03 03:54:45;;;;;;;6.60;5.13;;;6.10;99.90;;;;;;4956440;28;20268;-65
2023/05/03 03:57:13;;;;;;;8.17;5.23;;;6.10;99.90;;;;;;4959120;28;20173;-60
2023/05/03 03:59:41;;;;;;;6.50;4.50;;;6.10;99.90;;;;;;4956444;29;20272;-66
2023/05/03 04:02:09;;;;;;;5.23;4.00;;;6.10;99.90;;;;;;4967493;28;20212;-66
2023/05/03 04:04:40;;;;;;;5.43;4.30;;;6.10;99.90;;;;;;4956025;28;20232;-65
2023/05/03 04:07:06;;;;;;;7.87;5.50;;;6.10;99.90;;;;;;4971241;28;20177;-62
2023/05/03 04:09:32;;;;;;;14.87;10.77;;;6.00;99.90;;;;;;4963830;28;20201;-65
2023/05/03 04:12:02;;;;;;;8.70;5.73;;;6.00;99.90;;;;;;4954020;28;20204;-66
2023/05/03 04:14:30;;;;;;;7.27;5.27;;;6.00;99.90;;;;;;4972314;28;20177;-66
2023/05/03 04:16:55;;;;;;;7.67;5.23;;;6.00;99.90;;;;;;4970808;28;21638;-66
2023/05/03 04:19:24;;;;;;;6.80;4.73;;;5.90;99.90;;;;;;4972692;28;20187;-64
2023/05/03 04:21:54;;;;;;;6.80;4.87;;;5.90;99.90;;;;;;4970200;28;20392;-65
2023/05/03 04:24:22;;;;;;;5.43;4.70;;;5.90;99.90;;;;;;4972334;28;20229;-66
2023/05/03 04:26:50;;;;;;;8.43;4.60;;;5.90;99.90;;;;;;4969933;28;20196;-64
2023/05/03 04:29:17;;;;;;;6.23;4.90;;;5.80;99.90;;;;;;4956475;28;20247;-66
2023/05/03 04:31:42;;;;;;;5.73;4.50;;;5.80;99.90;;;;;;4957428;28;20232;-66
2023/05/03 04:34:09;;;;;;;7.73;5.83;;;5.80;99.90;;;;;;4953602;29;20181;-63
2023/05/03 04:36:35;;;;;;;11.27;8.70;;;5.80;99.90;;;;;;4954445;28;20235;-66
2023/05/03 04:39:03;;;;;;;9.37;7.13;;;5.80;99.90;;;;;;4956216;28;21802;-65
2023/05/03 04:41:29;;;;;;;8.23;6.10;;;5.80;99.90;;;;;;4959645;28;20455;-66
2023/05/03 04:43:55;;;;;;;6.40;5.60;;;5.80;99.90;;;;;;4968185;28;20276;-64
2023/05/03 04:46:20;;;;;;;8.07;5.50;;;5.90;99.90;;;;;;4969986;28;20324;-65
2023/05/03 04:48:46;;;;;;;8.10;5.07;;;6.00;99.90;;;;;;4955280;29;20184;-66
2023/05/03 04:51:14;;;;;;;7.90;5.00;;;5.90;99.90;;;;;;4969819;28;20193;-65
2023/05/03 04:53:39;;;;;;;7.23;4.80;;;6.00;99.90;;;;;;4957285;28;20204;-66
2023/05/03 04:56:07;;;;;;;8.23;5.10;;;6.00;99.90;;;;;;4956819;28;20240;-66
2023/05/03 04:58:35;;;;;;;4.90;4.20;;;6.00;99.90;;;;;;4955829;28;20219;-65
2023/05/03 05:01:06;;;;;;;5.10;4.00;;;6.00;99.90;;;;;;4969663;28;20212;-65
2023/05/03 05:03:34;;;;;;;7.50;4.13;;;6.10;99.90;;;;;;4953137;28;20414;-66
2023/05/03 05:05:59;;;;;;;8.30;4.27;;;6.10;99.90;;;;;;4956933;28;20276;-67
2023/05/03 05:08:27;;;;;;;5.33;4.07;;;6.20;99.90;;;;;;4969364;28;20295;-67
2023/05/03 05:10:53;;;;;;;7.47;4.23;;;6.20;99.90;;;;;;4954767;28;20203;-67
2023/05/03 05:13:18;;;;;;;7.10;4.30;;;6.20;99.90;;;;;;4950838;29;20176;-63
2023/05/03 05:15:44;;;;;;;5.33;4.07;;;6.20;99.90;;;;;;4964845;28;20205;-65
2023/05/03 05:18:10;;;;;;;5.43;4.17;;;6.20;99.90;;;;;;4964667;28;20220;-67
2023/05/03 05:20:35;;;;;;;4.73;3.90;;;6.20;99.90;;;;;;4966831;28;20173;-66
2023/05/03 05:23:03;;;;;;;6.77;4.30;;;6.20;99.90;;;;;;4954121;28;20228;-67
2023/05/03 05:25:29;;;;;;;7.27;4.30;;;6.30;99.90;;;;;;4954608;28;20196;-66
2023/05/03 05:27:55;;;;;;;6.27;4.10;;;6.20;99.90;;;;;;4968671;28;20220;-66
2023/05/03 05:30:23;;;;;;;5.83;4.23;;;6.20;99.90;;;;;;4956386;28;20250;-63
2023/05/03 05:32:52;;;;;;;7.80;4.90;;;6.20;99.90;;;;;;4946998;28;20243;-67
2023/05/03 05:35:19;;;;;;;5.77;4.57;;;6.30;99.90;;;;;;4967203;28;20479;-65
2023/05/03 05:37:45;;;;;;;6.13;4.73;;;6.30;99.90;;;;;;4952581;28;20228;-66
2023/05/03 05:40:11;;;;;;;6.83;4.70;;;6.30;99.90;;;;;;4966091;28;20212;-65
2023/05/03 05:42:37;;;;;;;6.13;4.90;;;6.40;99.90;;;;;;4971800;28;20187;-66
2023/05/03 05:45:03;;;;;;;6.70;4.53;;;6.40;99.90;;;;;;4968481;28;20296;-66
2023/05/03 05:47:29;;;;;;;6.70;4.93;;;6.40;99.90;;;;;;4946954;29;20200;-67
2023/05/03 05:49:55;;;;;;;7.30;4.67;;;6.50;99.90;;;;;;4961484;28;20248;-67
2023/05/03 05:52:21;;;;;;;6.57;4.50;;;6.60;99.90;;;;;;4955586;28;20212;-67
2023/05/03 05:54:46;;;;;;;6.43;5.00;;;6.60;99.90;;;;;;4966680;28;20206;-66
2023/05/03 05:57:12;;;;;;;7.07;5.20;;;6.70;99.90;;;;;;4969772;28;20279;-66
2023/05/03 05:59:38;;;;;;;8.30;5.70;;;6.70;99.90;;;;;;4959960;28;20205;-67
2023/05/03 06:02:13;;;;;;;8.07;5.17;;;6.80;99.90;;;;;;4952288;29;20205;-67
2023/05/03 06:04:39;;;;;;;6.43;4.97;;;6.90;99.90;;;;;;4961081;28;20193;-67
2023/05/03 06:07:04;;;;;;;7.07;4.83;;;6.90;99.90;;;;;;4943633;28;20216;-67
2023/05/03 06:09:30;;;;;;;5.97;4.57;;;7.00;99.90;;;;;;4949121;29;20201;-66
2023/05/03 06:11:55;;;;;;;7.20;5.07;;;7.10;99.90;;;;;;4969929;28;20231;-66
2023/05/03 06:14:25;;;;;;;7.57;5.27;;;7.20;99.90;;;;;;4966996;28;20296;-67
2023/05/03 06:16:51;;;;;;;7.70;5.60;;;7.20;99.90;;;;;;4971565;28;20195;-67
2023/05/03 06:19:20;;;;;;;7.27;5.10;;;7.30;99.90;;;;;;4955736;28;20276;-67
2023/05/03 06:21:48;;;;;;;6.63;4.67;;;7.40;99.90;;;;;;4963463;28;20341;-63
2023/05/03 06:24:19;;;;;;;7.60;5.43;;;7.40;99.90;;;;;;4970905;28;20188;-66
2023/05/03 06:26:47;;;;;;;8.03;4.57;;;7.50;99.90;;;;;;4955954;28;20192;-66
2023/05/03 06:29:13;;;;;;;12.63;5.23;;;7.60;99.90;;;;;;4955856;28;20244;-65
2023/05/03 06:31:40;;;;;;;9.23;4.90;;;7.70;99.90;;;;;;4937495;29;20244;-66
2023/05/03 06:34:06;;;;;;;7.47;5.57;;;7.70;99.90;;;;;;4955398;28;20188;-66
2023/05/03 06:36:34;;;;;;;8.33;5.37;;;7.80;99.90;;;;;;4955478;29;20207;-65
2023/05/03 06:39:03;;;;;;;6.57;5.43;;;7.90;99.90;;;;;;4940618;29;20182;-66
2023/05/03 06:41:31;;;;;;;7.27;5.10;;;8.00;99.90;;;;;;4955511;29;20193;-66
2023/05/03 06:43:57;;;;;;;6.97;5.50;;;8.10;99.90;;;;;;4969077;28;20213;-66
2023/05/03 06:46:22;;;;;;;7.93;5.40;;;8.10;99.90;;;;;;4957929;29;20247;-64
2023/05/03 06:48:48;;;;;;;7.27;5.30;;;8.20;99.90;;;;;;4963028;28;20204;-66
2023/05/03 06:51:14;;;;;;;5.63;4.77;;;8.30;99.90;;;;;;4964987;28;20223;-66
2023/05/03 06:53:40;;;;;;;8.37;5.47;;;8.30;99.90;;;;;;4971910;28;20192;-67
2023/05/03 06:56:06;;;;;;;6.10;5.03;;;8.40;99.90;;;;;;4974720;28;20181;-66
2023/05/03 06:58:36;;;;;;;6.57;5.17;;;8.50;99.90;;;;;;4966303;28;20201;-67
2023/05/03 07:01:02;;;;;;;7.97;5.13;;;8.60;99.90;;;;;;4959759;28;20213;-61
2023/05/03 07:03:27;;;;;;;7.70;5.20;;;8.60;99.90;;;;;;4974765;28;20215;-65
2023/05/03 07:05:53;;;;;;;6.30;4.80;;;8.70;99.90;;;;;;4960138;28;20210;-66
2023/05/03 07:08:19;;;;;;;6.77;4.80;;;8.70;99.90;;;;;;4974545;28;20185;-61
2023/05/03 07:10:44;;;;;;;9.77;5.80;;;8.80;99.90;;;;;;4971371;28;20240;-65
2023/05/03 07:13:13;;;;;;;9.43;5.83;;;8.90;99.90;;;;;;4953108;28;20255;-66
2023/05/03 07:15:40;;;;;;;7.47;4.87;;;8.90;99.90;;;;;;4970658;28;20193;-66
2023/05/03 07:18:06;;;;;;;6.37;4.70;;;9.10;99.90;;;;;;4955554;29;20173;-65
2023/05/03 07:20:34;;;;;;;8.20;4.80;;;9.10;99.90;;;;;;4957308;28;20212;-65
2023/05/03 07:23:00;;;;;;;9.10;5.00;;;9.20;99.90;;;;;;4958368;28;20181;-64
2023/05/03 07:25:30;;;;;;;4.97;4.10;;;9.30;99.90;;;;;;4977685;28;20279;-63
2023/05/03 07:28:01;;;;;;;5.60;4.17;;;9.40;99.90;;;;;;4957969;28;20204;-66
2023/05/03 07:30:26;;;;;;;5.30;4.13;;;9.50;99.90;;;;;;4967584;28;20184;-66
2023/05/03 07:32:52;;;;;;;5.83;4.40;;;9.50;99.90;;;;;;4973574;28;20263;-66
2023/05/03 07:35:18;;;;;;;5.40;3.90;;;9.60;99.90;;;;;;4972047;28;20177;-66
2023/05/03 07:37:44;;;;;;;5.10;4.30;;;9.70;99.90;;;;;;4964824;28;20271;-66
2023/05/03 07:40:10;;;;;;;5.32;4.10;;;9.80;99.90;;;;;;4972685;28;20276;-66
2023/05/03 07:42:39;;;;;;;4.80;3.90;;;9.90;99.90;;;;;;4971557;28;20220;-64
2023/05/03 07:45:05;;;;;;;5.28;4.13;;;10.00;99.90;;;;;;4958476;28;20200;-66
2023/05/03 07:47:36;;;;;;;4.72;3.85;;;10.10;99.90;;;;;;4965660;28;20220;-67
2023/05/03 07:50:04;;;;;;;4.20;3.47;;;10.20;99.90;;;;;;4966597;28;20264;-66
2023/05/03 07:52:37;;;;;;;7.18;3.65;;;10.20;99.90;;;;;;4955924;29;20211;-66
2023/05/03 07:55:08;;;;;;;7.07;3.90;;;10.40;99.90;;;;;;4969415;28;20277;-67
2023/05/03 07:57:36;;;;;;;5.97;3.80;;;10.40;99.90;;;;;;4947865;29;20177;-67
2023/05/03 08:00:04;;;;;;;4.90;3.60;;;10.50;99.90;;;;;;4957527;29;20199;-66
2023/05/03 08:02:30;;;;;;;5.03;3.50;;;10.60;99.90;;;;;;4950822;28;20191;-67
2023/05/03 08:04:58;;;;;;;5.95;3.20;;;10.70;99.90;;;;;;4966363;28;20181;-65
2023/05/03 08:07:23;;;;;;;3.85;3.45;;;10.80;99.90;;;;;;4956054;29;20219;-66
2023/05/03 08:09:52;;;;;;;3.88;3.17;;;10.90;99.90;;;;;;4956761;29;20204;-65
2023/05/03 08:12:18;;;;;;;5.38;3.70;;;10.90;99.90;;;;;;4973436;28;20193;-67
2023/05/03 08:14:48;;;;;;;4.75;3.40;;;11.10;99.90;;;;;;4972247;28;20177;-66
2023/05/03 08:17:14;;;;;;;4.30;3.65;;;11.20;99.90;;;;;;4969095;28;20204;-63
2023/05/03 08:19:40;;;;;;;4.80;3.40;;;11.20;99.90;;;;;;4953795;29;20180;-65
2023/05/03 08:22:06;;;;;;;5.68;3.63;;;11.30;99.90;;;;;;4960889;28;20196;-66
2023/05/03 08:24:34;;;;;;;4.80;3.78;;;11.40;99.90;;;;;;4964646;28;20180;-66
2023/05/03 08:26:59;;;;;;;4.65;3.60;;;11.50;99.90;;;;;;4959239;28;20193;-67
2023/05/03 08:29:28;;;;;;;5.28;3.45;;;11.50;99.90;;;;;;4948913;29;20185;-66
2023/05/03 08:31:53;;;;;;;5.10;3.67;;;11.70;99.90;;;;;;4970522;28;20216;-65
2023/05/03 08:34:21;;;;;;;5.68;3.85;;;11.70;99.90;;;;;;4972568;28;20185;-68
2023/05/03 08:36:49;;;;;;;4.70;4.07;;;11.80;99.90;;;;;;4972298;28;20271;-66
2023/05/03 08:39:16;;;;;;;5.57;3.80;;;11.90;99.90;;;;;;4966710;28;20450;-66
2023/05/03 08:41:41;;;;;;;5.28;3.75;;;12.00;99.90;;;;;;4962884;28;20180;-65
2023/05/03 08:44:13;;;;;;;4.97;3.90;;;12.00;99.90;;;;;;4964396;28;20192;-66
2023/05/03 08:46:44;;;;;;;4.22;3.60;;;12.10;99.90;;;;;;4968217;28;20212;-76
2023/05/03 08:49:14;;;;;;;4.97;3.42;;;12.20;99.90;;;;;;4972656;28;20181;-77
2023/05/03 08:51:46;;;;;;;5.05;3.70;;;12.20;99.90;;;;;;4957272;28;20215;-74
2023/05/03 08:54:20;;;;;;;4.45;3.40;;;12.30;99.90;;;;;;4964062;28;20201;-79
2023/05/03 08:56:51;;;;;;;7.05;3.53;;;12.40;99.90;;;;;;4970648;28;20168;-78
2023/05/03 08:59:17;;;;;;;4.65;3.70;;;12.40;99.90;;;;;;4956485;28;20178;-77
2023/05/03 09:01:43;;;;;;;4.13;3.42;;;12.50;99.90;;;;;;4954910;28;20204;-78
2023/05/03 09:04:10;;;;;;;4.28;3.72;;;12.60;99.90;;;;;;4956533;29;20212;-79
2023/05/03 09:06:36;;;;;;;5.32;4.13;;;12.60;99.90;;;;;;4955868;28;20201;-79
2023/05/03 09:09:06;;;;;;;3.85;3.30;;;12.70;99.90;;;;;;4949328;29;20267;-79
2023/05/03 09:11:33;;;;;;;4.75;3.55;;;12.80;99.90;;;;;;4963695;28;20212;-77
2023/05/03 09:14:14;;;;;;;4.50;3.35;;;12.80;99.90;;;;;;4972962;28;20254;-78
2023/05/03 09:16:45;;;;;;;5.70;3.35;;;12.90;99.90;;;;;;4959738;28;20212;-80
2023/05/03 09:19:12;;;;;;;5.05;3.50;;;13.00;99.90;;;;;;4953048;29;20187;-80
2023/05/03 09:21:46;;;;;;;4.28;3.25;;;13.00;99.90;;;;;;4951192;29;20172;-80
2023/05/03 09:24:20;;;;;;;4.30;3.40;;;13.20;99.90;;;;;;4953767;29;20180;-79
2023/05/03 09:26:49;;;;;;;5.32;3.05;;;13.30;99.90;;;;;;4954523;29;20203;-71
2023/05/03 09:29:28;;;;;;;4.43;3.05;;;13.40;99.90;;;;;;4945572;29;20184;-79
2023/05/03 09:32:01;;;;;;;4.65;2.88;;;13.50;99.90;;;;;;4962563;28;20196;-78
2023/05/03 09:34:27;;;;;;;4.63;3.00;;;13.60;99.90;;;;;;4953152;29;20212;-77
2023/05/03 09:36:55;;;;;;;5.13;2.78;;;13.60;99.90;;;;;;4947100;29;20177;-79
2023/05/03 09:39:23;;;;;;;6.65;3.42;;;13.70;99.90;;;;;;4966882;28;20176;-80
2023/05/03 09:41:49;;;;;;;4.05;3.25;;;13.80;99.90;;;;;;4975678;28;20204;-77
2023/05/03 09:44:16;;;;;;;3.92;2.80;;;13.90;99.90;;;;;;4944855;29;20245;-75
2023/05/03 09:47:07;;;;;;;4.68;3.15;;;14.00;99.90;;;;;;4946482;29;20185;-79
2023/05/03 09:49:33;;;;;;;4.32;3.17;;;14.10;99.90;;;;;;4953953;28;20176;-80
2023/05/03 09:52:02;;;;;;;4.43;3.30;;;14.20;99.90;;;;;;4964949;28;20215;-78
2023/05/03 09:54:30;;;;;;;4.75;3.28;;;14.20;99.90;;;;;;4955236;28;20260;-78
2023/05/03 09:56:56;;;;;;;3.97;3.10;;;14.30;99.90;;;;;;4962435;28;20208;-80
2023/05/03 09:59:22;;;;;;;4.80;2.95;;;14.40;99.90;;;;;;4955598;29;20181;-77
2023/05/03 10:01:51;;;;;;;5.30;3.10;;;14.40;99.90;;;;;;4961984;28;20201;-77
2023/05/03 10:04:18;;;;;;;3.78;2.90;;;14.50;99.90;;;;;;4941448;29;20431;-77
2023/05/03 10:06:48;;;;;;;5.05;3.05;;;14.60;99.90;;;;;;4955279;29;20220;-78
2023/05/03 10:09:25;;;;;;;4.00;2.80;;;14.60;99.90;;;;;;4962223;28;20292;-77
2023/05/03 10:11:59;;;;;;;4.00;2.38;;;14.70;99.90;;;;;;4974684;28;20787;-77
2023/05/03 10:14:25;;;;;;;4.15;2.97;;;14.90;99.90;;;;;;4975925;28;20257;-79
2023/05/03 10:16:57;;;;;;;4.40;2.80;;;15.10;99.90;;;;;;4959428;28;20203;-75
2023/05/03 10:19:47;;;;;;;3.25;2.72;;;15.50;99.90;;;;;;4974859;28;20232;-77
2023/05/03 10:22:15;;;;;;;3.10;2.67;;;16.00;99.90;;;;;;4971576;28;20188;-76
2023/05/03 10:24:56;;;;;;;5.32;2.97;;;16.50;99.90;;;;;;4941329;29;20239;-77
2023/05/03 10:27:22;;;;;;;4.47;2.72;;;17.00;99.90;;;;;;4954412;28;20180;-80
2023/05/03 10:29:50;;;;;;;5.25;3.08;;;17.40;99.90;;;;;;4960501;28;20185;-79
2023/05/03 10:32:32;;;;;;;4.88;2.92;;;17.70;99.90;;;;;;4959457;29;20204;-78
2023/05/03 10:35:19;;;;;;;4.25;2.40;;;18.10;99.90;;;;;;4955917;28;20204;-79
2023/05/03 10:37:53;;;;;;;4.53;2.30;;;18.40;99.90;;;;;;4967855;28;20208;-79
2023/05/03 10:40:21;;;;;;;2.53;2.10;;;18.60;99.90;;;;;;4968083;28;20172;-77
2023/05/03 10:42:56;;;;;;;3.28;2.30;;;18.90;99.90;;;;;;4943783;29;20268;-79
2023/05/03 10:45:29;;;;;;;3.17;2.10;;;19.10;99.90;;;;;;4955654;29;20177;-79
2023/05/03 10:48:19;;;;;;;3.60;2.35;;;19.30;99.90;;;;;;4944659;29;20185;-77
2023/05/03 10:50:45;;;;;;;2.70;2.28;;;19.50;99.90;;;;;;4967997;28;20215;-77
2023/05/03 10:53:34;;;;;;;2.47;2.15;;;19.60;99.90;;;;;;4956999;28;20212;-78
2023/05/03 10:56:11;;;;;;;2.47;1.90;;;19.90;99.90;;;;;;4964817;28;20238;-77
2023/05/03 10:58:41;;;;;;;2.25;1.80;;;20.00;99.90;;;;;;4974761;28;20195;-77
2023/05/03 11:01:12;;;;;;;3.78;2.40;;;20.10;99.90;;;;;;4958069;29;20245;-78
2023/05/03 11:04:01;;;;;;;3.30;2.40;;;20.30;99.90;;;;;;4954190;28;20185;-79
2023/05/03 11:06:31;;;;;;;3.38;2.63;;;20.40;99.90;;;;;;4947265;29;20173;-77
2023/05/03 11:08:57;;;;;;;3.00;2.08;;;20.40;99.90;;;;;;4974343;28;20180;-78
2023/05/03 11:11:25;;;;;;;3.30;1.90;;;20.40;99.90;;;;;;4958582;29;20232;-79
2023/05/03 11:13:51;;;;;;;2.55;1.80;;;20.50;99.90;;;;;;4971460;28;20536;-79
2023/05/03 11:16:17;;;;;;;2.95;2.15;;;20.60;99.90;;;;;;4965984;28;20200;-79
2023/05/03 11:18:44;;;;;;;3.10;1.92;;;20.70;99.90;;;;;;4947189;29;20181;-76
2023/05/03 11:21:10;;;;;;;2.55;1.70;;;20.70;99.90;;;;;;4954584;28;20212;-80
2023/05/03 11:23:40;;;;;;;3.13;2.10;;;20.70;99.90;;;;;;4958809;28;20192;-79
2023/05/03 11:26:07;;;;;;;2.80;2.00;;;20.80;99.90;;;;;;4941372;29;20176;-79
2023/05/03 11:28:32;;;;;;;1.98;1.70;;;20.90;99.90;;;;;;4959261;28;20196;-77
2023/05/03 11:31:01;;;;;;;2.92;2.20;;;21.00;99.90;;;;;;4962436;28;20462;-79
2023/05/03 11:33:30;;;;;;;3.95;2.20;;;21.00;99.90;;;;;;4958366;29;20177;-75
2023/05/03 11:35:58;;;;;;;3.70;2.30;;;21.10;99.90;;;;;;4957473;29;20302;-78
2023/05/03 11:38:24;;;;;;;2.08;1.75;;;21.10;99.90;;;;;;4967473;28;20173;-76
2023/05/03 11:40:51;;;;;;;2.53;2.03;;;21.10;99.90;;;;;;4959200;28;20207;-77
2023/05/03 11:43:17;;;;;;;2.15;1.75;;;21.10;99.90;;;;;;4948282;28;20212;-78
2023/05/03 11:45:49;;;;;;;2.92;2.25;;;21.10;99.90;;;;;;4954160;28;20247;-78
2023/05/03 11:48:15;;;;;;;3.70;2.35;;;21.10;99.90;;;;;;4955317;29;20271;-78
2023/05/03 11:50:50;;;;;;;2.95;2.22;;;21.10;99.90;;;;;;4967067;28;20204;-80
2023/05/03 11:53:18;;;;;;;3.08;2.30;;;21.10;99.90;;;;;;4954078;28;20201;-73
2023/05/03 11:55:48;;;;;;;3.25;2.15;;;21.10;99.90;;;;;;4972637;28;20255;-77
2023/05/03 11:58:19;;;;;;;3.05;2.20;;;21.10;99.90;;;;;;4951022;28;20187;-78
2023/05/03 12:00:56;;;;;;;3.25;2.10;;;21.10;99.90;;;;;;4955519;29;20177;-78
2023/05/03 12:03:31;;;;;;;2.33;1.67;;;21.20;98.80;;;;;;4959248;28;20184;-76
2023/05/03 12:05:59;;;;;;;2.35;1.90;;;21.30;99.90;;;;;;4955258;29;20189;-79
2023/05/03 12:08:32;;;;;;;2.88;1.73;;;21.40;99.90;;;;;;4952056;28;20176;-78
2023/05/03 12:11:03;;;;;;;2.92;1.70;;;21.50;99.90;;;;;;4950510;28;20195;-79
2023/05/03 12:13:36;;;;;;;2.78;1.83;;;21.70;99.90;;;;;;4973950;28;20169;-74
2023/05/03 12:16:06;;;;;;;3.13;1.75;;;21.70;99.90;;;;;;4954411;28;20189;-79
2023/05/03 12:19:01;;;;;;;1.90;1.48;;;21.80;99.90;;;;;;4965689;28;20187;-77
2023/05/03 12:21:45;;;;;;;2.40;1.70;;;22.00;96.20;;;;;;4957152;28;20276;-77
2023/05/03 12:24:11;;;;;;;3.03;1.90;;;22.10;96.70;;;;;;4970181;28;20208;-77
2023/05/03 12:26:36;;;;;;;2.10;1.70;;;22.10;99.90;;;;;;4938461;29;20216;-78
2023/05/03 12:29:02;;;;;;;2.58;1.50;;;22.20;98.30;;;;;;4938344;29;20284;-75
2023/05/03 12:31:32;;;;;;;4.05;2.40;;;22.20;99.80;;;;;;4955524;28;20193;-78
2023/05/03 12:33:58;;;;;;;3.92;2.42;;;22.20;99.80;;;;;;4939698;28;20260;-78
2023/05/03 12:36:26;;;;;;;2.20;1.95;;;22.30;99.10;;;;;;4953544;29;20234;-74
2023/05/03 12:38:54;;;;;;;2.00;1.58;;;22.40;99.60;;;;;;4963348;28;20227;-74
2023/05/03 12:41:22;;;;;;;2.05;1.70;;;22.40;99.40;;;;;;4973459;28;20180;-79
2023/05/03 12:43:48;;;;;;;2.67;1.85;;;22.50;99.40;;;;;;4962833;28;20204;-79
2023/05/03 12:46:13;;;;;;;2.55;1.50;;;22.60;99.30;;;;;;4954056;29;20191;-79
2023/05/03 12:48:39;;;;;;;3.55;1.55;;;22.70;98.90;;;;;;4938080;29;20244;-81
2023/05/03 12:51:07;;;;;;;2.22;1.50;;;22.70;98.80;;;;;;4971009;28;20215;-78
2023/05/03 12:53:32;;;;;;;3.30;1.65;;;22.80;98.40;;;;;;4963202;28;20196;-78
2023/05/03 12:55:58;;;;;;;3.05;1.70;;;22.80;97.10;;;;;;4957084;29;20271;-80
2023/05/03 12:58:24;;;;;;;2.88;2.00;;;22.70;95.00;;;;;;4969480;28;20188;-81
2023/05/03 13:00:50;;;;;;;3.60;1.70;;;22.70;95.40;;;;;;4950113;29;20187;-79
2023/05/03 13:03:16;;;;;;;3.05;1.50;;;22.70;96.20;;;;;;4972828;28;20200;-80
2023/05/03 13:05:45;;;;;;;2.47;1.65;;;22.70;96.10;;;;;;4972493;28;20188;-76
2023/05/03 13:08:13;;;;;;;2.25;1.67;;;22.80;96.80;;;;;;4972140;28;20199;-79
2023/05/03 13:10:44;;;;;;;2.20;1.55;;;22.90;96.10;;;;;;4957014;29;20192;-78
2023/05/03 13:13:12;;;;;;;3.95;1.65;;;22.90;93.40;;;;;;4968063;28;20208;-78
2023/05/03 13:15:40;;;;;;;1.52;1.20;;;23.00;93.40;;;;;;4956180;28;20205;-76
2023/05/03 13:18:06;;;;;;;2.65;1.45;;;23.10;95.30;;;;;;4965252;28;20264;-77
2023/05/03 13:20:33;;;;;;;2.58;1.27;;;23.10;94.20;;;;;;4953956;28;20288;-78